sensor_id;sensor_type;location;lat;lon;timestamp;P1;durP1;ratioP1;P2;durP2;ratioP2
23288;SDS011;11813;50.834;4.280;2023-03-01T00:02:03;18.07;;;9.63;;
23288;SDS011;11813;50.834;4.280;2023-03-01T00:04:29;14.60;;;8.43;;
23288;SDS011;11813;50.834;4.280;2023-03-01T00:06:55;15.63;;;9.83;;
23288;SDS011;11813;50.834;4.280;2023-03-01T00:09:21;13.17;;;8.93;;
23288;SDS011;11813;50.834;4.280;2023-03-01T00:11:48;13.30;;;8.63;;
23288;SDS011;11813;50.834;4.280;2023-03-01T00:14:13;14.53;;;9.30;;
23288;SDS011;11813;50.834;4.280;2023-03-01T00:16:41;13.73;;;8.93;;
23288;SDS011;11813;50.834;4.280;2023-03-01T00:19:10;14.93;;;9.17;;
23288;SDS011;11813;50.834;4.280;2023-03-01T00:21:40;14.17;;;8.93;;
23288;SDS011;11813;50.834;4.280;2023-03-01T00:24:06;14.20;;;9.67;;
23288;SDS011;11813;50.834;4.280;2023-03-01T00:26:32;14.13;;;9.10;;
23288;SDS011;11813;50.834;4.280;2023-03-01T00:28:58;14.60;;;9.60;;
23288;SDS011;11813;50.834;4.280;2023-03-01T00:31:25;15.43;;;9.90;;
23288;SDS011;11813;50.834;4.280;2023-03-01T00:33:54;15.17;;;9.50;;
23288;SDS011;11813;50.834;4.280;2023-03-01T00:36:22;13.53;;;8.53;;
23288;SDS011;11813;50.834;4.280;2023-03-01T00:38:48;13.97;;;8.87;;
23288;SDS011;11813;50.834;4.280;2023-03-01T00:41:15;12.57;;;9.63;;
23288;SDS011;11813;50.834;4.280;2023-03-01T00:43:43;13.27;;;9.50;;
23288;SDS011;11813;50.834;4.280;2023-03-01T00:46:13;15.57;;;9.20;;
23288;SDS011;11813;50.834;4.280;2023-03-01T00:48:43;16.97;;;9.20;;
23288;SDS011;11813;50.834;4.280;2023-03-01T00:51:10;17.13;;;9.37;;
23288;SDS011;11813;50.834;4.280;2023-03-01T00:53:37;14.57;;;9.10;;
23288;SDS011;11813;50.834;4.280;2023-03-01T00:56:03;16.37;;;9.47;;
23288;SDS011;11813;50.834;4.280;2023-03-01T00:58:30;16.63;;;10.27;;
23288;SDS011;11813;50.834;4.280;2023-03-01T01:00:56;15.93;;;8.87;;
23288;SDS011;11813;50.834;4.280;2023-03-01T01:03:22;12.53;;;8.90;;
23288;SDS011;11813;50.834;4.280;2023-03-01T01:05:49;17.00;;;8.90;;
23288;SDS011;11813;50.834;4.280;2023-03-01T01:08:15;12.87;;;8.50;;
23288;SDS011;11813;50.834;4.280;2023-03-01T01:10:42;14.30;;;8.83;;
23288;SDS011;11813;50.834;4.280;2023-03-01T01:13:09;17.80;;;8.80;;
23288;SDS011;11813;50.834;4.280;2023-03-01T01:15:34;12.97;;;8.17;;
23288;SDS011;11813;50.834;4.280;2023-03-01T01:18:00;14.27;;;8.40;;
23288;SDS011;11813;50.834;4.280;2023-03-01T01:20:26;17.10;;;8.83;;
23288;SDS011;11813;50.834;4.280;2023-03-01T01:22:51;15.40;;;8.33;;
23288;SDS011;11813;50.834;4.280;2023-03-01T01:25:17;13.13;;;7.97;;
23288;SDS011;11813;50.834;4.280;2023-03-01T01:27:43;17.20;;;8.77;;
23288;SDS011;11813;50.834;4.280;2023-03-01T01:30:08;14.73;;;8.53;;
23288;SDS011;11813;50.834;4.280;2023-03-01T01:32:35;14.70;;;8.77;;
23288;SDS011;11813;50.834;4.280;2023-03-01T01:35:00;13.53;;;8.33;;
23288;SDS011;11813;50.834;4.280;2023-03-01T01:37:26;13.37;;;8.23;;
23288;SDS011;11813;50.834;4.280;2023-03-01T01:39:57;15.20;;;8.83;;
23288;SDS011;11813;50.834;4.280;2023-03-01T01:42:24;14.57;;;8.07;;
23288;SDS011;11813;50.834;4.280;2023-03-01T01:45:18;16.33;;;8.67;;
23288;SDS011;11813;50.834;4.280;2023-03-01T01:47:54;14.33;;;8.17;;
23288;SDS011;11813;50.834;4.280;2023-03-01T01:50:23;15.73;;;8.93;;
23288;SDS011;11813;50.834;4.280;2023-03-01T01:52:49;12.83;;;9.07;;
23288;SDS011;11813;50.834;4.280;2023-03-01T01:55:21;14.73;;;9.17;;
23288;SDS011;11813;50.834;4.280;2023-03-01T01:57:53;13.40;;;8.60;;
23288;SDS011;11813;50.834;4.280;2023-03-01T02:00:25;13.13;;;8.13;;
23288;SDS011;11813;50.834;4.280;2023-03-01T02:02:56;12.87;;;8.63;;
23288;SDS011;11813;50.834;4.280;2023-03-01T02:05:47;12.97;;;8.60;;
23288;SDS011;11813;50.834;4.280;2023-03-01T02:08:22;15.47;;;9.00;;
23288;SDS011;11813;50.834;4.280;2023-03-01T02:10:51;20.47;;;8.70;;
23288;SDS011;11813;50.834;4.280;2023-03-01T02:13:18;15.67;;;9.33;;
23288;SDS011;11813;50.834;4.280;2023-03-01T02:15:43;15.00;;;8.93;;
23288;SDS011;11813;50.834;4.280;2023-03-01T02:18:10;12.03;;;8.10;;
23288;SDS011;11813;50.834;4.280;2023-03-01T02:23:22;12.77;;;8.43;;
23288;SDS011;11813;50.834;4.280;2023-03-01T02:28:25;11.83;;;8.37;;
23288;SDS011;11813;50.834;4.280;2023-03-01T02:30:50;17.03;;;9.17;;
23288;SDS011;11813;50.834;4.280;2023-03-01T02:33:37;12.97;;;8.53;;
23288;SDS011;11813;50.834;4.280;2023-03-01T02:36:05;14.50;;;8.33;;
23288;SDS011;11813;50.834;4.280;2023-03-01T02:38:34;15.20;;;8.50;;
23288;SDS011;11813;50.834;4.280;2023-03-01T02:41:00;17.20;;;8.60;;
23288;SDS011;11813;50.834;4.280;2023-03-01T02:43:29;13.43;;;8.97;;
23288;SDS011;11813;50.834;4.280;2023-03-01T02:46:02;14.47;;;8.67;;
23288;SDS011;11813;50.834;4.280;2023-03-01T02:48:46;14.43;;;8.27;;
23288;SDS011;11813;50.834;4.280;2023-03-01T02:53:48;13.63;;;8.87;;
23288;SDS011;11813;50.834;4.280;2023-03-01T02:56:18;11.67;;;7.90;;
23288;SDS011;11813;50.834;4.280;2023-03-01T02:58:44;14.17;;;9.40;;
23288;SDS011;11813;50.834;4.280;2023-03-01T03:01:12;16.17;;;9.33;;
23288;SDS011;11813;50.834;4.280;2023-03-01T03:03:40;17.30;;;9.93;;
23288;SDS011;11813;50.834;4.280;2023-03-01T03:06:06;15.50;;;9.30;;
23288;SDS011;11813;50.834;4.280;2023-03-01T03:08:31;13.23;;;8.40;;
23288;SDS011;11813;50.834;4.280;2023-03-01T03:10:57;16.23;;;9.73;;
23288;SDS011;11813;50.834;4.280;2023-03-01T03:13:23;17.07;;;9.53;;
23288;SDS011;11813;50.834;4.280;2023-03-01T03:15:53;15.63;;;9.53;;
23288;SDS011;11813;50.834;4.280;2023-03-01T03:18:20;13.43;;;9.27;;
23288;SDS011;11813;50.834;4.280;2023-03-01T03:20:47;14.23;;;8.83;;
23288;SDS011;11813;50.834;4.280;2023-03-01T03:23:17;13.23;;;8.70;;
23288;SDS011;11813;50.834;4.280;2023-03-01T03:25:43;14.87;;;10.10;;
23288;SDS011;11813;50.834;4.280;2023-03-01T03:28:09;16.37;;;9.37;;
23288;SDS011;11813;50.834;4.280;2023-03-01T03:30:35;11.83;;;8.73;;
23288;SDS011;11813;50.834;4.280;2023-03-01T03:33:03;12.97;;;8.73;;
23288;SDS011;11813;50.834;4.280;2023-03-01T03:35:40;11.77;;;8.60;;
23288;SDS011;11813;50.834;4.280;2023-03-01T03:38:08;15.90;;;8.67;;
23288;SDS011;11813;50.834;4.280;2023-03-01T03:40:41;10.83;;;7.83;;
23288;SDS011;11813;50.834;4.280;2023-03-01T03:43:10;13.50;;;9.33;;
23288;SDS011;11813;50.834;4.280;2023-03-01T03:45:40;14.80;;;9.60;;
23288;SDS011;11813;50.834;4.280;2023-03-01T03:48:09;15.17;;;9.20;;
23288;SDS011;11813;50.834;4.280;2023-03-01T03:50:35;15.57;;;10.23;;
23288;SDS011;11813;50.834;4.280;2023-03-01T03:53:03;14.40;;;9.93;;
23288;SDS011;11813;50.834;4.280;2023-03-01T03:55:29;18.17;;;10.43;;
23288;SDS011;11813;50.834;4.280;2023-03-01T03:57:56;16.13;;;9.63;;
23288;SDS011;11813;50.834;4.280;2023-03-01T04:00:25;14.97;;;9.40;;
23288;SDS011;11813;50.834;4.280;2023-03-01T04:02:51;19.20;;;9.37;;
23288;SDS011;11813;50.834;4.280;2023-03-01T04:05:21;15.77;;;9.73;;
23288;SDS011;11813;50.834;4.280;2023-03-01T04:07:47;15.33;;;9.30;;
23288;SDS011;11813;50.834;4.280;2023-03-01T04:10:16;14.83;;;8.77;;
23288;SDS011;11813;50.834;4.280;2023-03-01T04:12:42;14.90;;;10.37;;
23288;SDS011;11813;50.834;4.280;2023-03-01T04:15:09;14.03;;;9.00;;
23288;SDS011;11813;50.834;4.280;2023-03-01T04:17:42;15.23;;;9.07;;
23288;SDS011;11813;50.834;4.280;2023-03-01T04:20:09;18.13;;;9.50;;
23288;SDS011;11813;50.834;4.280;2023-03-01T04:22:37;16.80;;;10.10;;
23288;SDS011;11813;50.834;4.280;2023-03-01T04:25:04;14.53;;;9.30;;
23288;SDS011;11813;50.834;4.280;2023-03-01T04:27:32;18.00;;;9.83;;
23288;SDS011;11813;50.834;4.280;2023-03-01T04:29:58;17.87;;;10.20;;
23288;SDS011;11813;50.834;4.280;2023-03-01T04:32:24;17.73;;;10.20;;
23288;SDS011;11813;50.834;4.280;2023-03-01T04:34:49;18.00;;;9.10;;
23288;SDS011;11813;50.834;4.280;2023-03-01T04:37:15;14.47;;;9.23;;
23288;SDS011;11813;50.834;4.280;2023-03-01T04:39:40;13.90;;;8.73;;
23288;SDS011;11813;50.834;4.280;2023-03-01T04:42:10;16.57;;;10.00;;
23288;SDS011;11813;50.834;4.280;2023-03-01T04:44:36;17.67;;;9.30;;
23288;SDS011;11813;50.834;4.280;2023-03-01T04:47:02;16.70;;;9.83;;
23288;SDS011;11813;50.834;4.280;2023-03-01T04:49:28;13.43;;;8.87;;
23288;SDS011;11813;50.834;4.280;2023-03-01T04:51:53;13.63;;;9.33;;
23288;SDS011;11813;50.834;4.280;2023-03-01T04:54:19;13.93;;;9.43;;
23288;SDS011;11813;50.834;4.280;2023-03-01T04:56:44;16.10;;;9.70;;
23288;SDS011;11813;50.834;4.280;2023-03-01T04:59:10;14.93;;;9.30;;
23288;SDS011;11813;50.834;4.280;2023-03-01T05:01:37;15.10;;;9.43;;
23288;SDS011;11813;50.834;4.280;2023-03-01T05:04:03;16.27;;;8.77;;
23288;SDS011;11813;50.834;4.280;2023-03-01T05:06:30;13.37;;;8.60;;
23288;SDS011;11813;50.834;4.280;2023-03-01T05:08:56;17.90;;;10.07;;
23288;SDS011;11813;50.834;4.280;2023-03-01T05:11:21;13.63;;;8.63;;
23288;SDS011;11813;50.834;4.280;2023-03-01T05:13:47;15.80;;;9.80;;
23288;SDS011;11813;50.834;4.280;2023-03-01T05:16:15;13.97;;;9.77;;
23288;SDS011;11813;50.834;4.280;2023-03-01T05:18:41;12.07;;;8.60;;
23288;SDS011;11813;50.834;4.280;2023-03-01T05:21:11;14.17;;;9.73;;
23288;SDS011;11813;50.834;4.280;2023-03-01T05:23:40;13.43;;;8.40;;
23288;SDS011;11813;50.834;4.280;2023-03-01T05:26:07;17.97;;;9.87;;
23288;SDS011;11813;50.834;4.280;2023-03-01T05:28:33;17.17;;;10.10;;
23288;SDS011;11813;50.834;4.280;2023-03-01T05:31:00;19.63;;;8.70;;
23288;SDS011;11813;50.834;4.280;2023-03-01T05:33:26;18.67;;;9.13;;
23288;SDS011;11813;50.834;4.280;2023-03-01T05:35:52;15.43;;;9.60;;
23288;SDS011;11813;50.834;4.280;2023-03-01T05:38:18;16.37;;;9.30;;
23288;SDS011;11813;50.834;4.280;2023-03-01T05:40:46;18.83;;;9.60;;
23288;SDS011;11813;50.834;4.280;2023-03-01T05:43:14;17.90;;;9.60;;
23288;SDS011;11813;50.834;4.280;2023-03-01T05:45:41;14.90;;;9.40;;
23288;SDS011;11813;50.834;4.280;2023-03-01T05:48:08;16.90;;;9.33;;
23288;SDS011;11813;50.834;4.280;2023-03-01T05:50:36;14.27;;;9.10;;
23288;SDS011;11813;50.834;4.280;2023-03-01T05:53:06;16.70;;;9.57;;
23288;SDS011;11813;50.834;4.280;2023-03-01T05:55:35;16.50;;;9.43;;
23288;SDS011;11813;50.834;4.280;2023-03-01T05:58:02;16.40;;;9.20;;
23288;SDS011;11813;50.834;4.280;2023-03-01T06:00:30;18.33;;;9.60;;
23288;SDS011;11813;50.834;4.280;2023-03-01T06:02:57;15.07;;;9.57;;
23288;SDS011;11813;50.834;4.280;2023-03-01T06:05:24;21.57;;;10.50;;
23288;SDS011;11813;50.834;4.280;2023-03-01T06:07:50;17.57;;;10.07;;
23288;SDS011;11813;50.834;4.280;2023-03-01T06:10:18;16.93;;;9.17;;
23288;SDS011;11813;50.834;4.280;2023-03-01T06:12:45;17.97;;;9.57;;
23288;SDS011;11813;50.834;4.280;2023-03-01T06:15:11;18.37;;;9.63;;
23288;SDS011;11813;50.834;4.280;2023-03-01T06:17:39;19.07;;;10.07;;
23288;SDS011;11813;50.834;4.280;2023-03-01T06:20:10;16.23;;;9.80;;
23288;SDS011;11813;50.834;4.280;2023-03-01T06:22:46;18.77;;;9.83;;
23288;SDS011;11813;50.834;4.280;2023-03-01T06:25:15;16.47;;;10.03;;
23288;SDS011;11813;50.834;4.280;2023-03-01T06:27:45;16.03;;;10.07;;
23288;SDS011;11813;50.834;4.280;2023-03-01T06:30:13;18.40;;;9.77;;
23288;SDS011;11813;50.834;4.280;2023-03-01T06:32:40;14.10;;;9.30;;
23288;SDS011;11813;50.834;4.280;2023-03-01T06:35:07;15.50;;;9.43;;
23288;SDS011;11813;50.834;4.280;2023-03-01T06:37:34;14.77;;;9.50;;
23288;SDS011;11813;50.834;4.280;2023-03-01T06:40:00;16.07;;;10.03;;
23288;SDS011;11813;50.834;4.280;2023-03-01T06:42:29;24.03;;;10.20;;
23288;SDS011;11813;50.834;4.280;2023-03-01T06:44:55;16.97;;;9.43;;
23288;SDS011;11813;50.834;4.280;2023-03-01T06:47:21;19.13;;;9.37;;
23288;SDS011;11813;50.834;4.280;2023-03-01T06:49:46;14.67;;;10.10;;
23288;SDS011;11813;50.834;4.280;2023-03-01T06:52:12;17.77;;;10.57;;
23288;SDS011;11813;50.834;4.280;2023-03-01T06:54:37;17.67;;;10.00;;
23288;SDS011;11813;50.834;4.280;2023-03-01T06:57:03;15.77;;;9.87;;
23288;SDS011;11813;50.834;4.280;2023-03-01T06:59:28;17.00;;;10.50;;
23288;SDS011;11813;50.834;4.280;2023-03-01T07:01:54;18.13;;;10.47;;
23288;SDS011;11813;50.834;4.280;2023-03-01T07:04:19;19.07;;;9.67;;
23288;SDS011;11813;50.834;4.280;2023-03-01T07:06:45;17.73;;;9.97;;
23288;SDS011;11813;50.834;4.280;2023-03-01T07:09:11;21.87;;;9.50;;
23288;SDS011;11813;50.834;4.280;2023-03-01T07:11:36;20.60;;;11.33;;
23288;SDS011;11813;50.834;4.280;2023-03-01T07:14:02;18.83;;;9.93;;
23288;SDS011;11813;50.834;4.280;2023-03-01T07:16:28;19.03;;;12.10;;
23288;SDS011;11813;50.834;4.280;2023-03-01T07:18:53;15.87;;;9.67;;
23288;SDS011;11813;50.834;4.280;2023-03-01T07:21:19;22.90;;;10.57;;
23288;SDS011;11813;50.834;4.280;2023-03-01T07:23:47;20.17;;;11.00;;
23288;SDS011;11813;50.834;4.280;2023-03-01T07:26:13;17.87;;;10.30;;
23288;SDS011;11813;50.834;4.280;2023-03-01T07:28:38;17.47;;;9.07;;
23288;SDS011;11813;50.834;4.280;2023-03-01T07:31:04;16.57;;;10.30;;
23288;SDS011;11813;50.834;4.280;2023-03-01T07:33:31;17.73;;;11.10;;
23288;SDS011;11813;50.834;4.280;2023-03-01T07:35:57;20.30;;;10.40;;
23288;SDS011;11813;50.834;4.280;2023-03-01T07:38:24;16.03;;;9.60;;
23288;SDS011;11813;50.834;4.280;2023-03-01T07:40:50;19.60;;;10.73;;
23288;SDS011;11813;50.834;4.280;2023-03-01T07:43:15;16.93;;;10.30;;
23288;SDS011;11813;50.834;4.280;2023-03-01T07:45:41;17.87;;;10.73;;
23288;SDS011;11813;50.834;4.280;2023-03-01T07:48:06;15.20;;;10.17;;
23288;SDS011;11813;50.834;4.280;2023-03-01T07:50:32;19.30;;;10.67;;
23288;SDS011;11813;50.834;4.280;2023-03-01T07:52:57;18.50;;;10.17;;
23288;SDS011;11813;50.834;4.280;2023-03-01T07:55:23;20.07;;;9.60;;
23288;SDS011;11813;50.834;4.280;2023-03-01T07:57:49;21.00;;;10.97;;
23288;SDS011;11813;50.834;4.280;2023-03-01T08:00:14;17.60;;;10.40;;
23288;SDS011;11813;50.834;4.280;2023-03-01T08:02:40;23.43;;;10.30;;
23288;SDS011;11813;50.834;4.280;2023-03-01T08:05:07;18.67;;;11.40;;
23288;SDS011;11813;50.834;4.280;2023-03-01T08:07:34;19.17;;;11.53;;
23288;SDS011;11813;50.834;4.280;2023-03-01T08:09:59;18.70;;;11.13;;
23288;SDS011;11813;50.834;4.280;2023-03-01T08:12:25;24.47;;;11.37;;
23288;SDS011;11813;50.834;4.280;2023-03-01T08:14:52;17.60;;;10.60;;
23288;SDS011;11813;50.834;4.280;2023-03-01T08:17:18;25.60;;;11.80;;
23288;SDS011;11813;50.834;4.280;2023-03-01T08:19:44;19.93;;;11.73;;
23288;SDS011;11813;50.834;4.280;2023-03-01T08:22:09;17.20;;;10.83;;
23288;SDS011;11813;50.834;4.280;2023-03-01T08:24:35;22.37;;;10.80;;
23288;SDS011;11813;50.834;4.280;2023-03-01T08:27:01;18.83;;;10.73;;
23288;SDS011;11813;50.834;4.280;2023-03-01T08:29:27;18.17;;;10.47;;
23288;SDS011;11813;50.834;4.280;2023-03-01T08:31:55;18.23;;;11.00;;
23288;SDS011;11813;50.834;4.280;2023-03-01T08:34:21;21.63;;;11.80;;
23288;SDS011;11813;50.834;4.280;2023-03-01T08:36:46;20.57;;;11.83;;
23288;SDS011;11813;50.834;4.280;2023-03-01T08:39:14;16.90;;;10.93;;
23288;SDS011;11813;50.834;4.280;2023-03-01T08:41:41;15.57;;;9.77;;
23288;SDS011;11813;50.834;4.280;2023-03-01T08:44:08;17.07;;;10.50;;
23288;SDS011;11813;50.834;4.280;2023-03-01T08:46:36;18.33;;;10.80;;
23288;SDS011;11813;50.834;4.280;2023-03-01T08:49:06;22.93;;;11.23;;
23288;SDS011;11813;50.834;4.280;2023-03-01T08:51:34;17.03;;;10.07;;
23288;SDS011;11813;50.834;4.280;2023-03-01T08:54:05;16.13;;;10.80;;
23288;SDS011;11813;50.834;4.280;2023-03-01T08:56:32;17.30;;;10.90;;
23288;SDS011;11813;50.834;4.280;2023-03-01T08:58:58;21.80;;;10.93;;
23288;SDS011;11813;50.834;4.280;2023-03-01T09:01:24;19.27;;;11.37;;
23288;SDS011;11813;50.834;4.280;2023-03-01T09:03:49;16.90;;;10.40;;
23288;SDS011;11813;50.834;4.280;2023-03-01T09:06:15;20.87;;;9.90;;
23288;SDS011;11813;50.834;4.280;2023-03-01T09:08:42;17.50;;;10.77;;
23288;SDS011;11813;50.834;4.280;2023-03-01T09:11:10;15.37;;;9.57;;
23288;SDS011;11813;50.834;4.280;2023-03-01T09:13:37;16.90;;;10.03;;
23288;SDS011;11813;50.834;4.280;2023-03-01T09:16:04;18.67;;;10.37;;
23288;SDS011;11813;50.834;4.280;2023-03-01T09:18:31;19.53;;;10.77;;
23288;SDS011;11813;50.834;4.280;2023-03-01T09:21:08;17.40;;;11.37;;
23288;SDS011;11813;50.834;4.280;2023-03-01T09:23:39;17.57;;;10.77;;
23288;SDS011;11813;50.834;4.280;2023-03-01T09:26:06;15.83;;;10.90;;
23288;SDS011;11813;50.834;4.280;2023-03-01T09:28:34;22.70;;;11.37;;
23288;SDS011;11813;50.834;4.280;2023-03-01T09:31:01;21.53;;;10.40;;
23288;SDS011;11813;50.834;4.280;2023-03-01T09:33:27;16.20;;;10.20;;
23288;SDS011;11813;50.834;4.280;2023-03-01T09:36:04;18.67;;;11.87;;
23288;SDS011;11813;50.834;4.280;2023-03-01T09:38:32;23.27;;;11.70;;
23288;SDS011;11813;50.834;4.280;2023-03-01T09:40:59;21.37;;;10.80;;
23288;SDS011;11813;50.834;4.280;2023-03-01T09:43:27;19.83;;;10.87;;
23288;SDS011;11813;50.834;4.280;2023-03-01T09:46:11;17.47;;;10.40;;
23288;SDS011;11813;50.834;4.280;2023-03-01T09:48:51;22.67;;;11.17;;
23288;SDS011;11813;50.834;4.280;2023-03-01T09:51:24;22.57;;;11.17;;
23288;SDS011;11813;50.834;4.280;2023-03-01T09:53:55;18.73;;;11.77;;
23288;SDS011;11813;50.834;4.280;2023-03-01T09:56:32;36.07;;;12.03;;
23288;SDS011;11813;50.834;4.280;2023-03-01T09:59:11;17.93;;;11.07;;
23288;SDS011;11813;50.834;4.280;2023-03-01T10:04:32;22.57;;;11.63;;
23288;SDS011;11813;50.834;4.280;2023-03-01T10:07:13;21.23;;;11.63;;
23288;SDS011;11813;50.834;4.280;2023-03-01T10:09:45;31.43;;;12.17;;
23288;SDS011;11813;50.834;4.280;2023-03-01T10:12:13;19.43;;;11.43;;
23288;SDS011;11813;50.834;4.280;2023-03-01T10:14:44;18.13;;;11.63;;
23288;SDS011;11813;50.834;4.280;2023-03-01T10:17:30;24.87;;;12.57;;
23288;SDS011;11813;50.834;4.280;2023-03-01T10:22:46;21.43;;;12.20;;
23288;SDS011;11813;50.834;4.280;2023-03-01T10:25:20;20.23;;;11.87;;
23288;SDS011;11813;50.834;4.280;2023-03-01T10:30:53;19.23;;;10.67;;
23288;SDS011;11813;50.834;4.280;2023-03-01T10:33:23;19.17;;;11.27;;
23288;SDS011;11813;50.834;4.280;2023-03-01T10:35:54;16.87;;;11.03;;
23288;SDS011;11813;50.834;4.280;2023-03-01T10:38:20;16.17;;;11.20;;
23288;SDS011;11813;50.834;4.280;2023-03-01T10:40:51;18.00;;;11.20;;
23288;SDS011;11813;50.834;4.280;2023-03-01T10:43:23;21.57;;;10.97;;
23288;SDS011;11813;50.834;4.280;2023-03-01T10:45:51;16.10;;;10.60;;
23288;SDS011;11813;50.834;4.280;2023-03-01T10:50:47;18.63;;;10.73;;
23288;SDS011;11813;50.834;4.280;2023-03-01T10:53:22;14.77;;;10.17;;
23288;SDS011;11813;50.834;4.280;2023-03-01T10:58:59;20.50;;;11.23;;
23288;SDS011;11813;50.834;4.280;2023-03-01T11:01:30;14.27;;;10.00;;
23288;SDS011;11813;50.834;4.280;2023-03-01T11:06:33;16.07;;;10.43;;
23288;SDS011;11813;50.834;4.280;2023-03-01T11:09:13;19.23;;;11.03;;
23288;SDS011;11813;50.834;4.280;2023-03-01T11:11:40;17.37;;;11.17;;
23288;SDS011;11813;50.834;4.280;2023-03-01T11:14:07;22.07;;;11.93;;
23288;SDS011;11813;50.834;4.280;2023-03-01T11:16:45;16.30;;;11.13;;
23288;SDS011;11813;50.834;4.280;2023-03-01T11:19:16;18.17;;;12.10;;
23288;SDS011;11813;50.834;4.280;2023-03-01T11:22:05;15.73;;;10.33;;
23288;SDS011;11813;50.834;4.280;2023-03-01T11:27:17;15.87;;;10.93;;
23288;SDS011;11813;50.834;4.280;2023-03-01T11:32:28;15.07;;;9.70;;
23288;SDS011;11813;50.834;4.280;2023-03-01T11:35:02;16.00;;;10.70;;
23288;SDS011;11813;50.834;4.280;2023-03-01T11:40:45;18.20;;;10.30;;
23288;SDS011;11813;50.834;4.280;2023-03-01T11:43:36;14.37;;;9.07;;
23288;SDS011;11813;50.834;4.280;2023-03-01T11:46:28;14.30;;;9.97;;
23288;SDS011;11813;50.834;4.280;2023-03-01T11:55:04;15.43;;;8.97;;
23288;SDS011;11813;50.834;4.280;2023-03-01T12:03:19;16.93;;;9.97;;
23288;SDS011;11813;50.834;4.280;2023-03-01T12:22:32;14.00;;;9.43;;
23288;SDS011;11813;50.834;4.280;2023-03-01T12:33:17;19.33;;;9.93;;
23288;SDS011;11813;50.834;4.280;2023-03-01T12:50:00;12.70;;;8.80;;
23288;SDS011;11813;50.834;4.280;2023-03-01T12:55:07;13.60;;;8.63;;
23288;SDS011;11813;50.834;4.280;2023-03-01T12:57:46;14.07;;;9.73;;
23288;SDS011;11813;50.834;4.280;2023-03-01T13:03:31;13.47;;;8.87;;
23288;SDS011;11813;50.834;4.280;2023-03-01T13:06:25;13.20;;;9.00;;
23288;SDS011;11813;50.834;4.280;2023-03-01T13:08:59;17.23;;;8.83;;
23288;SDS011;11813;50.834;4.280;2023-03-01T13:11:48;12.43;;;8.83;;
23288;SDS011;11813;50.834;4.280;2023-03-01T13:16:45;14.97;;;9.10;;
23288;SDS011;11813;50.834;4.280;2023-03-01T13:19:18;17.47;;;9.17;;
23288;SDS011;11813;50.834;4.280;2023-03-01T13:21:46;15.40;;;9.10;;
23288;SDS011;11813;50.834;4.280;2023-03-01T13:27:18;11.70;;;8.47;;
23288;SDS011;11813;50.834;4.280;2023-03-01T13:29:51;12.70;;;9.47;;
23288;SDS011;11813;50.834;4.280;2023-03-01T13:32:31;11.33;;;9.13;;
23288;SDS011;11813;50.834;4.280;2023-03-01T13:34:58;11.03;;;8.83;;
23288;SDS011;11813;50.834;4.280;2023-03-01T13:37:25;11.50;;;8.50;;
23288;SDS011;11813;50.834;4.280;2023-03-01T13:39:54;12.67;;;8.87;;
23288;SDS011;11813;50.834;4.280;2023-03-01T13:45:05;13.53;;;8.90;;
23288;SDS011;11813;50.834;4.280;2023-03-01T13:48:01;14.97;;;8.70;;
23288;SDS011;11813;50.834;4.280;2023-03-01T13:50:32;14.53;;;9.10;;
23288;SDS011;11813;50.834;4.280;2023-03-01T13:53:05;12.73;;;9.47;;
23288;SDS011;11813;50.834;4.280;2023-03-01T13:58:19;11.67;;;9.17;;
23288;SDS011;11813;50.834;4.280;2023-03-01T14:00:54;12.63;;;9.03;;
23288;SDS011;11813;50.834;4.280;2023-03-01T14:03:21;13.00;;;8.90;;
23288;SDS011;11813;50.834;4.280;2023-03-01T14:08:28;12.80;;;8.30;;
23288;SDS011;11813;50.834;4.280;2023-03-01T14:13:45;11.83;;;8.37;;
23288;SDS011;11813;50.834;4.280;2023-03-01T14:19:18;12.17;;;8.77;;
23288;SDS011;11813;50.834;4.280;2023-03-01T14:21:58;21.73;;;9.27;;
23288;SDS011;11813;50.834;4.280;2023-03-01T14:25:06;12.93;;;8.63;;
23288;SDS011;11813;50.834;4.280;2023-03-01T14:27:41;15.30;;;9.10;;
23288;SDS011;11813;50.834;4.280;2023-03-01T14:30:14;10.50;;;8.80;;
23288;SDS011;11813;50.834;4.280;2023-03-01T14:32:59;13.33;;;9.77;;
23288;SDS011;11813;50.834;4.280;2023-03-01T14:35:28;13.37;;;9.20;;
23288;SDS011;11813;50.834;4.280;2023-03-01T14:37:55;19.33;;;9.47;;
23288;SDS011;11813;50.834;4.280;2023-03-01T14:40:28;15.40;;;9.47;;
23288;SDS011;11813;50.834;4.280;2023-03-01T14:42:57;13.97;;;9.03;;
23288;SDS011;11813;50.834;4.280;2023-03-01T14:45:25;13.70;;;9.63;;
23288;SDS011;11813;50.834;4.280;2023-03-01T14:47:53;21.00;;;9.40;;
23288;SDS011;11813;50.834;4.280;2023-03-01T14:52:57;19.77;;;9.90;;
23288;SDS011;11813;50.834;4.280;2023-03-01T14:55:30;13.53;;;9.37;;
23288;SDS011;11813;50.834;4.280;2023-03-01T14:57:59;12.73;;;9.03;;
23288;SDS011;11813;50.834;4.280;2023-03-01T15:00:29;16.77;;;9.90;;
23288;SDS011;11813;50.834;4.280;2023-03-01T15:02:57;18.47;;;10.03;;
23288;SDS011;11813;50.834;4.280;2023-03-01T15:05:31;14.87;;;8.87;;
23288;SDS011;11813;50.834;4.280;2023-03-01T15:07:58;13.43;;;9.60;;
23288;SDS011;11813;50.834;4.280;2023-03-01T15:10:28;14.87;;;9.53;;
23288;SDS011;11813;50.834;4.280;2023-03-01T15:13:19;14.27;;;9.43;;
23288;SDS011;11813;50.834;4.280;2023-03-01T15:15:47;19.13;;;10.33;;
23288;SDS011;11813;50.834;4.280;2023-03-01T15:18:22;15.80;;;9.80;;
23288;SDS011;11813;50.834;4.280;2023-03-01T15:20:51;12.50;;;9.37;;
23288;SDS011;11813;50.834;4.280;2023-03-01T15:25:46;18.00;;;9.00;;
23288;SDS011;11813;50.834;4.280;2023-03-01T15:28:16;14.67;;;9.63;;
23288;SDS011;11813;50.834;4.280;2023-03-01T15:30:45;12.27;;;8.83;;
23288;SDS011;11813;50.834;4.280;2023-03-01T15:33:27;12.77;;;8.73;;
23288;SDS011;11813;50.834;4.280;2023-03-01T15:35:57;14.53;;;9.27;;
23288;SDS011;11813;50.834;4.280;2023-03-01T15:38:51;14.87;;;9.27;;
23288;SDS011;11813;50.834;4.280;2023-03-01T15:41:31;12.80;;;9.50;;
23288;SDS011;11813;50.834;4.280;2023-03-01T15:44:16;14.80;;;9.90;;
23288;SDS011;11813;50.834;4.280;2023-03-01T15:46:46;13.07;;;9.17;;
23288;SDS011;11813;50.834;4.280;2023-03-01T15:49:34;16.23;;;9.03;;
23288;SDS011;11813;50.834;4.280;2023-03-01T15:52:03;13.20;;;9.07;;
23288;SDS011;11813;50.834;4.280;2023-03-01T15:54:30;12.73;;;9.17;;
23288;SDS011;11813;50.834;4.280;2023-03-01T15:56:56;13.57;;;9.40;;
23288;SDS011;11813;50.834;4.280;2023-03-01T15:59:22;12.83;;;9.37;;
23288;SDS011;11813;50.834;4.280;2023-03-01T16:01:48;13.33;;;9.80;;
23288;SDS011;11813;50.834;4.280;2023-03-01T16:04:15;14.17;;;8.77;;
23288;SDS011;11813;50.834;4.280;2023-03-01T16:06:48;16.23;;;10.20;;
23288;SDS011;11813;50.834;4.280;2023-03-01T16:09:19;16.83;;;10.10;;
23288;SDS011;11813;50.834;4.280;2023-03-01T16:11:48;13.50;;;10.17;;
23288;SDS011;11813;50.834;4.280;2023-03-01T16:14:14;16.57;;;9.70;;
23288;SDS011;11813;50.834;4.280;2023-03-01T16:16:41;17.00;;;9.03;;
23288;SDS011;11813;50.834;4.280;2023-03-01T16:19:07;14.77;;;8.67;;
23288;SDS011;11813;50.834;4.280;2023-03-01T16:21:33;16.47;;;9.33;;
23288;SDS011;11813;50.834;4.280;2023-03-01T16:23:59;20.60;;;9.57;;
23288;SDS011;11813;50.834;4.280;2023-03-01T16:26:24;18.83;;;9.73;;
23288;SDS011;11813;50.834;4.280;2023-03-01T16:28:50;15.13;;;8.77;;
23288;SDS011;11813;50.834;4.280;2023-03-01T16:31:18;15.97;;;9.80;;
23288;SDS011;11813;50.834;4.280;2023-03-01T16:33:44;14.30;;;9.63;;
23288;SDS011;11813;50.834;4.280;2023-03-01T16:36:14;15.13;;;9.50;;
23288;SDS011;11813;50.834;4.280;2023-03-01T16:38:41;15.73;;;9.70;;